Latest Coastal Weather Observations for Devonport Airport

IDV60701

Issued at 8:02 pm EDT Saturday 10 December 2022 (issued every 10 minutes, with the page automatically refreshed every 10 minutes)

About coastal observations | Map of coastal stations | Coastal observations for VIC | Marine services | Other Formats
Station Details ID: 091126 Name: DEVONPORT AIRPORT Lat: -41.17 Lon: 146.43 Height: 8.0 m
Data from the previous 72 hours. | See also: Recent months at Devonport Airport
Date/Time
EDT
Wind Sea
Height
m
Swell Vis
km
Cloud Weather Temp
°C
Press
MSL
hPa
Rain since
9am
mm
Dir  Spd
kts
Gust
kts
Height
m
Period
s
Dir
10/08:00pm NNW 5 7 - - - - 10 Clear - 14.7 1014.7 0.0
10/07:30pm N 5 7 - - - - 10 - - 15.5 1014.5 0.0
10/07:00pm NNW 7 10 - - - - 10 - - 15.2 1014.6 0.0
10/06:30pm N 9 10 - - - - 10 - - 15.7 1014.5 0.0
10/06:00pm N 9 11 - - - - 10 - - 16.0 1014.6 0.0
10/05:30pm N 11 13 - - - - 10 - - 16.3 1014.8 0.0
10/05:00pm N 11 13 - - - - 10 - - 16.7 1015.2 0.0
10/04:30pm N 11 13 - - - - 10 - - 16.5 1015.4 0.0
10/04:00pm N 11 13 - - - - 10 - - 17.0 1015.7 0.0
10/03:30pm N 12 14 - - - - 10 - - 16.4 1016.1 0.0
10/03:00pm N 12 15 - - - - 10 - - 16.3 1016.3 0.0
10/02:30pm N 12 15 - - - - 10 - - 16.7 1016.5 0.0
10/02:00pm N 11 14 - - - - 10 - - 16.2 1016.8 0.0
10/01:30pm N 11 13 - - - - 10 - - 17.1 1017.0 0.0
10/01:00pm N 10 11 - - - - 10 - - 16.2 1017.2 0.0
10/12:30pm N 10 13 - - - - 10 Partly cloudy - 16.8 1017.4 0.0
10/12:00pm NE 13 16 - - - - 10 Partly cloudy - 17.7 1017.5 0.0
10/11:30am NE 12 15 - - - - 10 - - 16.2 1017.9 0.0
10/11:00am NE 12 16 - - - - 10 - - 16.3 1018.0 0.0
10/10:30am NE 12 16 - - - - 10 Partly cloudy - 16.9 1018.1 0.0
10/10:00am NE 10 15 - - - - 10 Partly cloudy - 16.9 1018.4 0.0
10/09:30am ENE 9 13 - - - - 10 Partly cloudy - 15.6 1018.5 0.0
10/09:00am SE 7 9 - - - - 10 Cloudy - 15.5 1018.4 0.0
10/08:30am SE 9 11 - - - - 10 Cloudy - 14.5 1018.3 0.0
10/08:00am SE 9 12 - - - - 10 Partly cloudy - 13.7 1018.3 0.0
10/07:30am SSE 10 12 - - - - 10 Partly cloudy - 12.9 1018.0 0.0
10/07:00am SE 10 13 - - - - 10 Partly cloudy - 12.3 1017.9 0.0
10/06:30am SSE 9 11 - - - - 10 Partly cloudy - 11.8 1017.8 0.0
10/06:00am SSE 9 10 - - - - 10 Cloudy - 11.5 1017.8 0.0
10/05:30am SSE 9 10 - - - - 10 Partly cloudy - 11.1 1017.5 0.0
10/05:00am SSE 8 10 - - - - 10 Partly cloudy - 11.1 1017.4 0.0
10/04:30am SSE 9 10 - - - - 10 Partly cloudy - 10.9 1017.4 0.0
10/04:00am SSE 8 10 - - - - 10 Cloudy - 10.8 1017.4 0.0
10/03:30am SSE 8 8 - - - - 10 Partly cloudy - 9.9 1017.5 0.0
10/03:00am S 6 8 - - - - 10 Mostly clear - 9.7 1017.5 0.0
10/02:30am SSE 8 9 - - - - 10 - - 10.6 1017.3 0.0
10/02:00am SSE 8 9 - - - - 10 - - 10.8 1017.4 0.0
10/01:30am S 5 6 - - - - 10 - - 11.2 1017.5 0.0
10/01:00am SE 8 13 - - - - 10 - - 12.1 1017.2 0.0
10/12:30am SE 12 16 - - - - 10 - - 12.5 1017.0 0.0
10/12:00am SE 12 15 - - - - 10 - - 12.4 1017.0 0.0
 
Date/Time
EDT
Wind Sea
Height
m
Swell Vis
km
Cloud Weather Temp
°C
Press
MSL
hPa
Rain since
9am
mm
Dir  Spd
kts
Gust
kts
Height
m
Period
s
Dir
09/11:30pm SSE 9 12 - - - - 10 - - 12.1 1017.0 0.0
09/11:00pm SSE 9 11 - - - - 10 - - 12.5 1017.0 0.0
09/10:30pm SE 10 11 - - - - 10 - - 12.9 1017.0 0.0
09/10:00pm S 7 9 - - - - 10 - - 12.0 1016.8 0.0
09/09:30pm SE 6 8 - - - - 10 - - 11.8 1016.3 0.0
09/09:00pm SSE 3 5 - - - - 10 Partly cloudy - 12.6 1016.1 0.0
09/08:30pm S 2 5 - - - - 10 - - 14.2 1015.9 0.0
09/08:00pm NNW 8 11 - - - - 10 - - 15.3 1015.7 0.0
09/07:30pm NW 10 14 - - - - 10 Partly cloudy - 16.0 1015.5 0.0
09/07:00pm NNW 10 13 - - - - 10 Partly cloudy - 15.9 1015.3 0.0
09/06:30pm NW 11 15 - - - - 10 Cloudy - 17.1 1015.2 0.0
09/06:00pm NW 13 17 - - - - 10 Mostly cloudy - 16.6 1015.2 0.0
09/05:30pm NW 10 13 - - - - 10 Partly cloudy - 16.8 1015.2 0.0
09/05:00pm NNW 10 12 - - - - 10 Partly cloudy - 18.7 1015.0 0.0
09/04:30pm NNW 10 13 - - - - 10 Cloudy - 16.4 1015.4 0.0
09/04:00pm NNW 12 15 - - - - 10 Partly cloudy - 16.5 1015.5 0.0
09/03:30pm NNW 13 17 - - - - 10 Partly cloudy - 17.7 1015.7 0.0
09/03:00pm NNW 17 21 - - - - 10 - - 16.3 1015.9 0.0
09/02:30pm NW 16 22 - - - - 10 - - 16.3 1016.2 0.0
09/02:00pm NW 17 21 - - - - 10 - - 15.9 1016.3 0.0
09/01:30pm NW 17 22 - - - - 10 - - 16.2 1016.5 0.0
09/01:00pm NW 16 20 - - - - 10 - - 15.7 1016.6 0.0
09/12:30pm NW 16 19 - - - - 10 - - 15.9 1016.6 0.0
09/12:00pm NW 16 19 - - - - 10 - - 15.5 1016.7 0.0
09/11:30am NW 14 18 - - - - 10 - - 15.5 1016.8 0.0
09/11:00am NNW 12 14 - - - - 10 Partly cloudy - 14.9 1016.9 0.0
09/10:30am NW 10 13 - - - - 10 Partly cloudy - 15.1 1016.9 0.0
09/10:00am NNW 10 13 - - - - 10 Partly cloudy - 13.5 1016.8 0.0
09/09:30am N 11 14 - - - - 10 - - 13.4 1016.9 0.0
09/09:00am S 5 7 - - - - 10 - - 13.7 1017.1 0.0
09/08:30am WNW 5 8 - - - - 10 - - 11.9 1017.1 0.0
09/08:00am W 2 5 - - - - 10 - - 11.8 1017.1 0.0
09/07:30am SW 5 6 - - - - 10 - - 10.6 1016.8 0.0
09/07:00am WSW 3 5 - - - - 10 - - 9.4 1016.6 0.0
09/06:30am ESE 3 5 - - - - 10 - - 6.3 1016.4 0.0
09/06:00am SSW 3 5 - - - - 10 - - 4.2 1016.2 0.0
09/05:30am SW 4 5 - - - - 10 - - 4.3 1016.0 0.0
09/05:00am SSW 4 6 - - - - 10 - - 4.7 1015.9 0.0
09/04:30am SW 7 9 - - - - 10 - - 6.6 1015.5 0.0
09/04:00am S 5 7 - - - - 10 - - 5.2 1015.7 0.0
09/03:30am SSW 5 6 - - - - 10 - - 6.2 1015.7 0.0
09/03:00am SSW 6 8 - - - - 10 - - 6.3 1015.5 0.0
09/02:30am S 7 9 - - - - 10 - - 6.3 1015.5 0.0
09/02:00am SSW 5 6 - - - - 10 - - 6.2 1015.4 0.0
09/01:30am S 5 6 - - - - 10 - - 6.3 1015.4 0.0
09/01:00am S 3 5 - - - - 10 - - 7.4 1015.3 0.0
09/12:30am SSW 7 11 - - - - 10 - - 8.7 1015.3 0.0
09/12:00am SSW 6 7 - - - - 10 - - 8.0 1015.1 0.0
 
Date/Time
EDT
Wind Sea
Height
m
Swell Vis
km
Cloud Weather Temp
°C
Press
MSL
hPa
Rain since
9am
mm
Dir  Spd
kts
Gust
kts
Height
m
Period
s
Dir
08/11:30pm SSW 6 7 - - - - 10 - - 9.0 1014.8 0.0
08/11:00pm SSW 6 7 - - - - 10 - - 7.8 1014.3 0.0
08/10:30pm SSW 4 5 - - - - 10 - - 8.8 1014.2 0.0
08/10:00pm SSW 5 7 - - - - 10 - - 9.6 1013.8 0.0
08/09:30pm SSW 7 9 - - - - 10 - - 10.3 1013.4 0.0
08/09:00pm S 6 8 - - - - 10 - - 10.8 1013.1 0.0
08/08:30pm SSW 10 14 - - - - 10 - - 12.4 1012.5 0.0
08/08:00pm SSW 10 16 - - - - 10 - - 13.5 1012.0 0.0
08/07:30pm S 14 21 - - - - 10 - - 14.3 1011.3 0.0
08/07:00pm SSW 13 21 - - - - 10 - - 15.3 1010.8 0.0
08/06:30pm SW 17 22 - - - - 10 - - 15.6 1010.2 0.0
08/06:00pm SW 16 23 - - - - 10 - - 16.4 1009.8 0.0
08/05:30pm SW 15 21 - - - - 10 - - 16.8 1009.4 0.0
08/05:00pm SSW 15 22 - - - - 10 Partly cloudy - 16.9 1009.0 0.0
08/04:30pm SSW 12 19 - - - - 10 Partly cloudy - 16.9 1008.6 0.0
08/04:00pm SW 14 23 - - - - 10 Partly cloudy - 18.4 1008.3 0.0
08/03:30pm SW 16 22 - - - - 10 Partly cloudy - 18.1 1008.3 0.0
08/03:00pm SW 18 24 - - - - 10 - - 17.3 1008.1 0.0
08/02:30pm SW 21 27 - - - - 10 Partly cloudy - 17.1 1007.9 0.0
08/02:09pm SW 19 29 - - - - 10 - - 17.5 1007.6 0.0
08/02:00pm SW 20 29 - - - - 10 - - 17.3 1007.6 0.0
08/01:30pm SW 16 25 - - - - 10 - - 17.6 1007.5 0.0
08/01:00pm WSW 18 26 - - - - 10 - - 17.5 1007.4 0.0
08/12:30pm WSW 17 24 - - - - 10 - - 16.7 1007.4 0.0
08/12:00pm SW 12 21 - - - - 10 Mostly clear - 16.5 1007.5 0.0
08/11:30am WSW 15 20 - - - - 10 - - 16.0 1007.4 0.0
08/11:00am SSW 11 17 - - - - 10 - - 15.5 1007.2 0.0
08/10:30am SW 16 22 - - - - 10 - - 15.2 1007.0 0.0
08/10:00am SW 14 19 - - - - 10 - - 14.7 1006.9 0.0
08/09:30am SSW 11 15 - - - - 10 - - 14.0 1006.6 0.0
08/09:00am SW 15 20 - - - - 10 - - 13.3 1006.3 0.0
08/08:30am SW 10 15 - - - - 10 - - 13.2 1005.6 0.0
08/08:00am SSE 5 7 - - - - 10 - - 12.1 1005.2 0.0
08/07:30am SW 8 11 - - - - 10 - - 10.8 1004.8 0.0
08/07:00am SW 10 15 - - - - 10 - - 10.6 1004.3 0.0
08/06:33am SW 15 25 - - - - 10 - - 10.7 1003.8 0.0
08/06:30am SW 12 18 - - - - 10 - - 10.6 1003.7 0.0
08/06:00am SW 13 20 - - - - 10 Partly cloudy - 9.5 1003.2 0.0
08/05:30am SW 15 21 - - - - 10 - - 10.0 1002.9 0.0
08/05:24am SW 15 26 - - - - 10 - - 10.1 1002.9 0.0
08/05:00am SW 15 21 - - - - 10 - - 10.0 1002.4 0.0
08/04:30am WSW 19 30 - - - - 10 Partly cloudy - 10.1 1001.9 0.0
08/04:13am WSW 19 29 - - - - 10 Cloudy - 10.4 1001.7 0.0
08/04:00am WSW 20 29 - - - - 10 Partly cloudy - 10.3 1001.4 0.0
08/03:55am WSW 16 27 - - - - 10 Partly cloudy - 10.2 1001.5 0.0
08/03:30am WSW 15 20 - - - - 10 Partly cloudy - 10.1 1001.5 0.0
08/03:00am WSW 14 21 - - - - 10 Cloudy - 10.2 1001.5 0.0
08/02:36am WSW 17 27 - - - - 10 Partly cloudy - 10.4 1001.4 0.0
08/02:30am WSW 21 29 - - - - 10 Partly cloudy - 10.4 1001.3 0.0
08/02:00am WSW 21 29 - - - - 10 Cloudy - 10.7 1001.0 0.0
08/01:30am WSW 14 20 - - - - 10 Partly cloudy - 10.7 1001.0 0.0
08/01:00am WSW 13 16 - - - - 10 - - 9.8 1000.9 0.0
08/12:30am W 14 17 - - - - 10 - - 10.2 1000.7 0.0
08/12:00am W 15 19 - - - - 10 Mostly clear - 9.9 1000.5 0.0
 
Date/Time
EDT
Wind Sea
Height
m
Swell Vis
km
Cloud Weather Temp
°C
Press
MSL
hPa
Rain since
9am
mm
Dir  Spd
kts
Gust
kts
Height
m
Period
s
Dir
07/11:30pm W 18 22 - - - - 10 - - 10.3 1000.2 0.0
07/11:00pm W 20 24 - - - - 10 - - 10.6 999.7 0.0
07/10:58pm W 19 24 - - - - 10 - - 10.6 999.8 0.0
07/10:30pm WSW 10 13 - - - - 10 Partly cloudy - 10.4 1000.0 0.0
07/10:00pm WSW 12 18 - - - - 10 Partly cloudy - 11.6 999.9 0.0
07/09:30pm WSW 12 17 - - - - 10 - - 12.1 999.5 0.0
07/09:00pm WSW 12 16 - - - - 10 Mostly cloudy - 12.0 998.8 0.0
07/08:30pm WSW 13 18 - - - - 10 Partly cloudy - 13.2 998.5 0.0

Other formats

Comma delimited format used in spreadsheet applications
http://www.bom.gov.au/fwo/IDV60701/IDV60701.95960.axf

JavaScript Object Notation format (JSON) in row-major order
http://www.bom.gov.au/fwo/IDV60701/IDV60701.95960.json

Data quality

Most of these data are generated automatically and are frequently updated. Quality checks on data are not normally performed. It is possible for incorrect values to appear. Refer to information at About Latest Weather Observations and please check the disclaimer before using these data.